MAS10 WIPP-WBGG
Flight info
| Callsign | MAS10 |
|---|---|
| Flight time | N/A |
| Altitude | 33000 |
| Route | TODAK W23 PNK R455 PAPSA PAPSA1E |
| Aircraft | B38M/M-SDE1FGHILORVWXY/HB1 |
Departure
| Time | 2026-04-21 13:17 |
|---|---|
| Airport | Sultan Mahmud Badaruddin II Airport (WIPP) |
Arrival
| Time | N/A |
|---|---|
| Airport | Kuching International Airport (WBGG) |
| Time | Latitude | Longitude | Altitude | Speed | Heading |
|---|---|---|---|---|---|
| 2026-04-21 13:10 | -2.89681 | 104.70366 | 29 ft | 0 kts | 112° |
| 2026-04-21 13:10 | -2.89682 | 104.70367 | 29 ft | 1 kts | 112° |
| 2026-04-21 13:10 | -2.89696 | 104.70400 | 29 ft | 9 kts | 112° |
| 2026-04-21 13:11 | -2.89730 | 104.70483 | 29 ft | 16 kts | 112° |
| 2026-04-21 13:11 | -2.89782 | 104.70552 | 28 ft | 8 kts | 175° |
| 2026-04-21 13:11 | -2.89864 | 104.70540 | 26 ft | 18 kts | 162° |
| 2026-04-21 13:11 | -2.89943 | 104.70679 | 23 ft | 28 kts | 113° |
| 2026-04-21 13:12 | -2.90024 | 104.70870 | 22 ft | 31 kts | 113° |
| 2026-04-21 13:12 | -2.90081 | 104.71005 | 21 ft | 27 kts | 117° |
| 2026-04-21 13:12 | -2.90236 | 104.70954 | 22 ft | 17 kts | 287° |
| 2026-04-21 13:12 | -2.90222 | 104.70920 | 21 ft | 0 kts | 291° |
| 2026-04-21 13:16 | -2.90215 | 104.70902 | 23 ft | 16 kts | 291° |
| 2026-04-21 13:16 | -2.90065 | 104.70521 | 23 ft | 99 kts | 293° |
| 2026-04-21 13:17 | -2.89706 | 104.69672 | 57 ft | 158 kts | 291° |
| 2026-04-21 13:17 | -2.88945 | 104.68769 | 500 ft | 182 kts | 331° |
| 2026-04-21 13:17 | -2.87782 | 104.68189 | 1267 ft | 193 kts | 333° |
| 2026-04-21 13:17 | -2.86512 | 104.67588 | 1919 ft | 212 kts | 347° |
| 2026-04-21 13:18 | -2.84981 | 104.67754 | 2424 ft | 235 kts | 30° |
| 2026-04-21 13:18 | -2.83774 | 104.68813 | 3467 ft | 237 kts | 43° |
| 2026-04-21 13:18 | -2.82687 | 104.70090 | 4298 ft | 243 kts | 67° |
| 2026-04-21 13:18 | -2.82159 | 104.71686 | 5330 ft | 249 kts | 68° |
| 2026-04-21 13:19 | -2.81441 | 104.73329 | 6005 ft | 267 kts | 64° |
| 2026-04-21 13:19 | -2.80651 | 104.75068 | 6737 ft | 279 kts | 65° |
| 2026-04-21 13:19 | -2.79851 | 104.76844 | 7701 ft | 282 kts | 65° |
| 2026-04-21 13:19 | -2.79043 | 104.78650 | 8588 ft | 287 kts | 65° |
| 2026-04-21 13:20 | -2.78223 | 104.80484 | 9507 ft | 291 kts | 65° |
| 2026-04-21 13:20 | -2.77390 | 104.82351 | 10352 ft | 298 kts | 65° |
| 2026-04-21 13:20 | -2.76521 | 104.84298 | 10843 ft | 316 kts | 65° |
| 2026-04-21 13:20 | -2.75601 | 104.86356 | 11334 ft | 331 kts | 65° |
| 2026-04-21 13:21 | -2.74647 | 104.88493 | 12003 ft | 339 kts | 66° |
| 2026-04-21 13:21 | -2.73686 | 104.90649 | 12878 ft | 341 kts | 66° |
| 2026-04-21 13:21 | -2.72714 | 104.92828 | 13673 ft | 345 kts | 66° |
| 2026-04-21 13:21 | -2.71731 | 104.95032 | 14411 ft | 348 kts | 66° |
| 2026-04-21 13:22 | -2.70754 | 104.97225 | 15126 ft | 352 kts | 66° |
| 2026-04-21 13:22 | -2.69751 | 104.99475 | 15828 ft | 356 kts | 66° |
| 2026-04-21 13:22 | -2.68737 | 105.01748 | 16515 ft | 360 kts | 66° |
| 2026-04-21 13:22 | -2.67715 | 105.04040 | 17187 ft | 363 kts | 66° |
| 2026-04-21 13:23 | -2.66681 | 105.06360 | 17838 ft | 367 kts | 66° |
| 2026-04-21 13:23 | -2.65638 | 105.08697 | 18434 ft | 370 kts | 66° |
| 2026-04-21 13:23 | -2.64585 | 105.11059 | 18964 ft | 373 kts | 66° |
| 2026-04-21 13:23 | -2.63522 | 105.13443 | 19486 ft | 377 kts | 66° |
| 2026-04-21 13:24 | -2.62450 | 105.15846 | 20022 ft | 380 kts | 66° |
| 2026-04-21 13:24 | -2.61370 | 105.18267 | 20524 ft | 383 kts | 66° |
| 2026-04-21 13:24 | -2.60278 | 105.20715 | 21038 ft | 387 kts | 66° |
| 2026-04-21 13:24 | -2.59178 | 105.23181 | 21539 ft | 390 kts | 66° |
| 2026-04-21 13:25 | -2.58069 | 105.25667 | 22039 ft | 393 kts | 66° |
| 2026-04-21 13:25 | -2.56966 | 105.28139 | 22504 ft | 396 kts | 66° |
| 2026-04-21 13:25 | -2.55825 | 105.30696 | 23009 ft | 399 kts | 66° |
| 2026-04-21 13:25 | -2.54689 | 105.33242 | 23469 ft | 402 kts | 66° |
| 2026-04-21 13:26 | -2.53545 | 105.35807 | 23850 ft | 405 kts | 66° |
| 2026-04-21 13:26 | -2.52386 | 105.38384 | 24250 ft | 406 kts | 65° |
| 2026-04-21 13:26 | -2.51173 | 105.40957 | 24606 ft | 410 kts | 64° |
| 2026-04-21 13:26 | -2.49951 | 105.43541 | 24995 ft | 412 kts | 65° |
| 2026-04-21 13:27 | -2.48735 | 105.46139 | 25375 ft | 414 kts | 65° |
| 2026-04-21 13:27 | -2.47505 | 105.48753 | 25723 ft | 417 kts | 65° |
| 2026-04-21 13:27 | -2.46286 | 105.51345 | 26057 ft | 420 kts | 65° |
| 2026-04-21 13:27 | -2.45041 | 105.53995 | 26421 ft | 421 kts | 65° |
| 2026-04-21 13:28 | -2.43792 | 105.56653 | 26749 ft | 425 kts | 64° |
| 2026-04-21 13:28 | -2.42529 | 105.59335 | 27133 ft | 426 kts | 65° |
| 2026-04-21 13:28 | -2.41261 | 105.62033 | 27458 ft | 431 kts | 64° |
| 2026-04-21 13:28 | -2.39984 | 105.64748 | 27846 ft | 432 kts | 65° |
| 2026-04-21 13:29 | -2.38709 | 105.67465 | 28259 ft | 433 kts | 64° |
| 2026-04-21 13:29 | -2.37421 | 105.70202 | 28555 ft | 437 kts | 64° |
| 2026-04-21 13:29 | -2.36129 | 105.72952 | 28896 ft | 438 kts | 64° |
| 2026-04-21 13:29 | -2.34825 | 105.75729 | 29189 ft | 443 kts | 65° |
| 2026-04-21 13:30 | -2.33513 | 105.78517 | 29576 ft | 444 kts | 64° |
| 2026-04-21 13:30 | -2.32197 | 105.81314 | 29865 ft | 446 kts | 64° |
| 2026-04-21 13:30 | -2.30874 | 105.84126 | 30129 ft | 448 kts | 64° |
| 2026-04-21 13:30 | -2.29544 | 105.86954 | 30356 ft | 451 kts | 64° |
| 2026-04-21 13:31 | -2.28209 | 105.89793 | 30614 ft | 452 kts | 64° |
| 2026-04-21 13:31 | -2.26866 | 105.92648 | 30827 ft | 455 kts | 64° |
| 2026-04-21 13:31 | -2.25517 | 105.95514 | 31126 ft | 457 kts | 64° |
| 2026-04-21 13:31 | -2.24161 | 105.98396 | 31359 ft | 459 kts | 64° |
| 2026-04-21 13:32 | -2.22797 | 106.01294 | 31601 ft | 462 kts | 65° |
| 2026-04-21 13:32 | -2.21426 | 106.04206 | 31797 ft | 465 kts | 65° |
| 2026-04-21 13:32 | -2.20048 | 106.07137 | 32118 ft | 466 kts | 65° |
| 2026-04-21 13:32 | -2.18664 | 106.10084 | 32381 ft | 470 kts | 65° |
| 2026-04-21 13:33 | -2.17264 | 106.13047 | 32630 ft | 471 kts | 64° |
| 2026-04-21 13:33 | -2.15619 | 106.15877 | 32826 ft | 472 kts | 56° |
| 2026-04-21 13:33 | -2.12001 | 106.21436 | 32915 ft | 481 kts | 57° |
| 2026-04-21 13:34 | -2.08324 | 106.27073 | 32901 ft | 486 kts | 57° |
| 2026-04-21 13:34 | -2.04618 | 106.32748 | 32911 ft | 488 kts | 57° |
| 2026-04-21 13:35 | -2.00932 | 106.38393 | 32875 ft | 489 kts | 57° |
| 2026-04-21 13:35 | -1.97205 | 106.44102 | 32898 ft | 491 kts | 57° |
| 2026-04-21 13:36 | -1.93470 | 106.49823 | 32908 ft | 491 kts | 57° |
| 2026-04-21 13:36 | -1.89737 | 106.55537 | 32886 ft | 492 kts | 57° |
| 2026-04-21 13:37 | -1.86005 | 106.61254 | 32879 ft | 490 kts | 57° |
| 2026-04-21 13:37 | -1.82273 | 106.66968 | 32854 ft | 491 kts | 57° |
| 2026-04-21 13:38 | -1.78546 | 106.72674 | 32892 ft | 487 kts | 57° |
| 2026-04-21 13:38 | -1.74853 | 106.78325 | 32904 ft | 486 kts | 57° |
| 2026-04-21 13:39 | -1.71161 | 106.83977 | 32904 ft | 485 kts | 57° |
| 2026-04-21 13:39 | -1.67468 | 106.89629 | 32904 ft | 486 kts | 57° |
| 2026-04-21 13:40 | -1.63775 | 106.95281 | 32904 ft | 486 kts | 57° |
| 2026-04-21 13:40 | -1.60081 | 107.00934 | 32903 ft | 486 kts | 57° |
| 2026-04-21 13:41 | -1.56389 | 107.06584 | 32901 ft | 485 kts | 57° |
| 2026-04-21 13:41 | -1.52705 | 107.12218 | 32900 ft | 484 kts | 57° |